sensor_id;sensor_type;location;lat;lon;timestamp;pressure;altitude;pressure_sealevel;temperature;humidity
2401;BME280;1211;43.200;27.914;2022-08-04T00:00:18;101051.53;;;22.09;100.00
2401;BME280;1211;43.200;27.914;2022-08-04T00:03:12;101051.13;;;22.14;100.00
2401;BME280;1211;43.200;27.914;2022-08-04T00:05:58;101055.91;;;22.07;100.00
2401;BME280;1211;43.200;27.914;2022-08-04T00:08:33;101058.38;;;22.44;100.00
2401;BME280;1211;43.200;27.914;2022-08-04T00:11:03;101060.38;;;22.68;100.00
2401;BME280;1211;43.200;27.914;2022-08-04T00:13:36;101055.09;;;23.20;100.00
2401;BME280;1211;43.200;27.914;2022-08-04T00:16:05;101057.56;;;22.68;100.00
2401;BME280;1211;43.200;27.914;2022-08-04T00:18:39;101056.38;;;22.76;100.00
2401;BME280;1211;43.200;27.914;2022-08-04T00:21:09;101068.00;;;22.92;100.00
2401;BME280;1211;43.200;27.914;2022-08-04T00:23:38;101072.81;;;22.95;100.00
2401;BME280;1211;43.200;27.914;2022-08-04T00:26:05;101065.94;;;23.11;100.00
2401;BME280;1211;43.200;27.914;2022-08-04T00:28:34;101070.41;;;22.97;100.00
2401;BME280;1211;43.200;27.914;2022-08-04T00:31:02;101078.44;;;23.03;100.00
2401;BME280;1211;43.200;27.914;2022-08-04T00:33:30;101082.84;;;22.96;100.00
2401;BME280;1211;43.200;27.914;2022-08-04T00:35:58;101075.19;;;23.11;100.00
2401;BME280;1211;43.200;27.914;2022-08-04T00:38:26;101080.03;;;22.96;100.00
2401;BME280;1211;43.200;27.914;2022-08-04T00:41:01;101080.78;;;23.22;100.00
2401;BME280;1211;43.200;27.914;2022-08-04T00:43:31;101091.03;;;23.89;100.00
2401;BME280;1211;43.200;27.914;2022-08-04T00:49:31;101079.63;;;23.09;100.00
2401;BME280;1211;43.200;27.914;2022-08-04T00:52:17;101081.56;;;23.29;100.00
2401;BME280;1211;43.200;27.914;2022-08-04T00:55:03;101082.41;;;23.12;100.00
2401;BME280;1211;43.200;27.914;2022-08-04T00:57:45;101080.81;;;23.15;100.00
2401;BME280;1211;43.200;27.914;2022-08-04T01:00:16;101087.22;;;23.12;100.00
2401;BME280;1211;43.200;27.914;2022-08-04T01:02:54;101094.50;;;22.91;100.00
2401;BME280;1211;43.200;27.914;2022-08-04T01:05:31;101091.25;;;23.14;100.00
2401;BME280;1211;43.200;27.914;2022-08-04T01:08:14;101094.50;;;23.02;100.00
2401;BME280;1211;43.200;27.914;2022-08-04T01:10:58;101091.66;;;22.98;100.00
2401;BME280;1211;43.200;27.914;2022-08-04T01:13:47;101100.88;;;23.17;100.00
2401;BME280;1211;43.200;27.914;2022-08-04T01:16:24;101088.88;;;22.91;100.00
2401;BME280;1211;43.200;27.914;2022-08-04T01:18:55;101091.28;;;23.04;100.00
2401;BME280;1211;43.200;27.914;2022-08-04T01:21:50;101101.72;;;23.03;100.00
2401;BME280;1211;43.200;27.914;2022-08-04T01:24:29;101092.91;;;22.97;100.00
2401;BME280;1211;43.200;27.914;2022-08-04T01:27:05;101093.69;;;22.94;100.00
2401;BME280;1211;43.200;27.914;2022-08-04T01:29:39;101091.31;;;22.86;100.00
2401;BME280;1211;43.200;27.914;2022-08-04T01:32:14;101090.44;;;23.10;100.00
2401;BME280;1211;43.200;27.914;2022-08-04T01:34:51;101091.66;;;22.98;100.00
2401;BME280;1211;43.200;27.914;2022-08-04T01:37:28;101077.63;;;22.98;100.00
2401;BME280;1211;43.200;27.914;2022-08-04T01:40:01;101085.69;;;22.79;100.00
2401;BME280;1211;43.200;27.914;2022-08-04T01:42:30;101079.63;;;22.87;100.00
2401;BME280;1211;43.200;27.914;2022-08-04T01:45:00;101072.00;;;22.42;100.00
2401;BME280;1211;43.200;27.914;2022-08-04T01:47:29;101068.78;;;22.11;100.00
2401;BME280;1211;43.200;27.914;2022-08-04T01:50:04;101064.66;;;21.91;100.00
2401;BME280;1211;43.200;27.914;2022-08-04T01:52:33;101064.63;;;21.70;100.00
2401;BME280;1211;43.200;27.914;2022-08-04T01:55:03;101060.97;;;21.59;100.00
2401;BME280;1211;43.200;27.914;2022-08-04T01:57:32;101059.78;;;21.67;100.00
2401;BME280;1211;43.200;27.914;2022-08-04T02:00:02;101058.97;;;21.63;100.00
2401;BME280;1211;43.200;27.914;2022-08-04T02:02:30;101046.22;;;21.76;100.00
2401;BME280;1211;43.200;27.914;2022-08-04T02:04:56;101052.63;;;21.76;100.00
2401;BME280;1211;43.200;27.914;2022-08-04T02:07:46;101054.72;;;22.08;100.00
2401;BME280;1211;43.200;27.914;2022-08-04T02:10:22;101048.56;;;21.67;100.00
2401;BME280;1211;43.200;27.914;2022-08-04T02:12:58;101049.41;;;21.78;100.00
2401;BME280;1211;43.200;27.914;2022-08-04T02:15:37;101048.56;;;21.63;100.00
2401;BME280;1211;43.200;27.914;2022-08-04T02:18:13;101054.19;;;21.77;100.00
2401;BME280;1211;43.200;27.914;2022-08-04T02:20:43;101054.53;;;21.55;100.00
2401;BME280;1211;43.200;27.914;2022-08-04T02:23:14;101055.69;;;21.43;100.00
2401;BME280;1211;43.200;27.914;2022-08-04T02:25:46;101055.78;;;21.71;100.00
2401;BME280;1211;43.200;27.914;2022-08-04T02:28:21;101058.59;;;21.64;100.00
2401;BME280;1211;43.200;27.914;2022-08-04T02:31:03;101061.56;;;22.35;100.00
2401;BME280;1211;43.200;27.914;2022-08-04T02:33:35;101065.50;;;21.12;100.00
2401;BME280;1211;43.200;27.914;2022-08-04T02:36:04;101067.00;;;20.95;100.00
2401;BME280;1211;43.200;27.914;2022-08-04T02:38:46;101065.31;;;21.46;100.00
2401;BME280;1211;43.200;27.914;2022-08-04T02:41:19;101063.66;;;21.37;100.00
2401;BME280;1211;43.200;27.914;2022-08-04T02:43:48;101074.00;;;21.26;100.00
2401;BME280;1211;43.200;27.914;2022-08-04T02:46:17;101062.03;;;21.29;100.00
2401;BME280;1211;43.200;27.914;2022-08-04T02:48:45;101071.47;;;21.07;100.00
2401;BME280;1211;43.200;27.914;2022-08-04T02:51:16;101070.00;;;21.24;100.00
2401;BME280;1211;43.200;27.914;2022-08-04T02:53:45;101064.47;;;21.34;100.00
2401;BME280;1211;43.200;27.914;2022-08-04T02:56:14;101068.50;;;21.41;100.00
2401;BME280;1211;43.200;27.914;2022-08-04T02:58:45;101067.59;;;21.26;100.00
2401;BME280;1211;43.200;27.914;2022-08-04T03:01:16;101071.72;;;21.46;100.00
2401;BME280;1211;43.200;27.914;2022-08-04T03:03:49;101060.13;;;21.51;100.00
2401;BME280;1211;43.200;27.914;2022-08-04T03:06:52;101062.94;;;21.51;100.00
2401;BME280;1211;43.200;27.914;2022-08-04T03:10:14;101062.94;;;21.55;100.00
2401;BME280;1211;43.200;27.914;2022-08-04T03:13:25;101062.94;;;21.51;100.00
2401;BME280;1211;43.200;27.914;2022-08-04T03:16:18;101063.75;;;21.55;100.00
2401;BME280;1211;43.200;27.914;2022-08-04T03:19:21;101067.00;;;21.64;100.00
2401;BME280;1211;43.200;27.914;2022-08-04T03:22:12;101067.00;;;21.64;100.00
2401;BME280;1211;43.200;27.914;2022-08-04T03:28:30;101067.97;;;22.99;100.00
2401;BME280;1211;43.200;27.914;2022-08-04T03:31:29;101075.22;;;22.86;100.00
2401;BME280;1211;43.200;27.914;2022-08-04T03:34:21;101080.84;;;22.97;100.00
2401;BME280;1211;43.200;27.914;2022-08-04T03:37:07;101084.75;;;22.00;100.00
2401;BME280;1211;43.200;27.914;2022-08-04T03:42:56;101081.44;;;21.77;100.00
2401;BME280;1211;43.200;27.914;2022-08-04T03:45:59;101074.63;;;21.74;100.00
2401;BME280;1211;43.200;27.914;2022-08-04T03:48:57;101078.28;;;21.86;100.00
2401;BME280;1211;43.200;27.914;2022-08-04T03:51:40;101086.81;;;22.10;100.00
2401;BME280;1211;43.200;27.914;2022-08-04T03:54:56;101081.19;;;22.21;100.00
2401;BME280;1211;43.200;27.914;2022-08-04T03:57:44;101088.00;;;22.20;100.00
2401;BME280;1211;43.200;27.914;2022-08-04T04:00:14;101087.19;;;22.09;100.00
2401;BME280;1211;43.200;27.914;2022-08-04T04:03:22;101094.88;;;22.44;100.00
2401;BME280;1211;43.200;27.914;2022-08-04T04:06:26;101097.69;;;22.86;100.00
2401;BME280;1211;43.200;27.914;2022-08-04T04:09:12;101096.88;;;23.11;100.00
2401;BME280;1211;43.200;27.914;2022-08-04T04:12:13;101101.22;;;23.40;100.00
2401;BME280;1211;43.200;27.914;2022-08-04T04:14:59;101087.97;;;23.40;100.00
2401;BME280;1211;43.200;27.914;2022-08-04T04:20:52;101093.25;;;25.56;100.00
2401;BME280;1211;43.200;27.914;2022-08-04T04:23:46;101100.06;;;25.92;100.00
2401;BME280;1211;43.200;27.914;2022-08-04T04:26:45;101101.59;;;26.31;100.00
2401;BME280;1211;43.200;27.914;2022-08-04T04:29:37;101099.41;;;26.42;100.00
2401;BME280;1211;43.200;27.914;2022-08-04T04:32:23;101100.72;;;26.34;100.00
2401;BME280;1211;43.200;27.914;2022-08-04T04:35:07;101100.94;;;26.16;100.00
2401;BME280;1211;43.200;27.914;2022-08-04T04:37:56;101106.78;;;26.59;100.00
2401;BME280;1211;43.200;27.914;2022-08-04T04:40:33;101109.22;;;25.69;100.00
2401;BME280;1211;43.200;27.914;2022-08-04T04:43:21;101102.06;;;25.27;100.00
2401;BME280;1211;43.200;27.914;2022-08-04T04:46:01;101104.63;;;25.11;100.00
2401;BME280;1211;43.200;27.914;2022-08-04T04:48:37;101095.41;;;25.44;100.00
2401;BME280;1211;43.200;27.914;2022-08-04T04:51:13;101099.44;;;26.65;100.00
2401;BME280;1211;43.200;27.914;2022-08-04T04:53:50;101103.56;;;27.90;100.00
2401;BME280;1211;43.200;27.914;2022-08-04T04:56:27;101114.94;;;28.06;100.00
2401;BME280;1211;43.200;27.914;2022-08-04T04:58:59;101109.75;;;28.73;100.00
2401;BME280;1211;43.200;27.914;2022-08-04T05:01:47;101111.69;;;28.92;98.06
2401;BME280;1211;43.200;27.914;2022-08-04T05:04:31;101115.28;;;29.25;96.48
2401;BME280;1211;43.200;27.914;2022-08-04T05:07:17;101116.53;;;29.81;92.10
2401;BME280;1211;43.200;27.914;2022-08-04T05:09:57;101129.44;;;31.00;85.89
2401;BME280;1211;43.200;27.914;2022-08-04T05:12:52;101135.88;;;30.66;80.55
2401;BME280;1211;43.200;27.914;2022-08-04T05:15:28;101141.75;;;31.78;78.41
2401;BME280;1211;43.200;27.914;2022-08-04T05:17:57;101141.34;;;32.91;73.76
2401;BME280;1211;43.200;27.914;2022-08-04T05:20:28;101147.78;;;33.22;70.83
2401;BME280;1211;43.200;27.914;2022-08-04T05:23:02;101147.16;;;32.07;73.00
2401;BME280;1211;43.200;27.914;2022-08-04T05:25:33;101145.75;;;31.68;73.21
2401;BME280;1211;43.200;27.914;2022-08-04T05:28:05;101149.94;;;33.00;70.71
2401;BME280;1211;43.200;27.914;2022-08-04T05:30:37;101144.75;;;32.06;72.07
2401;BME280;1211;43.200;27.914;2022-08-04T05:33:14;101140.56;;;32.50;67.43
2401;BME280;1211;43.200;27.914;2022-08-04T05:35:45;101146.03;;;33.61;62.58
2401;BME280;1211;43.200;27.914;2022-08-04T05:38:17;101152.16;;;34.33;61.91
2401;BME280;1211;43.200;27.914;2022-08-04T05:40:45;101150.25;;;34.71;59.43
2401;BME280;1211;43.200;27.914;2022-08-04T05:43:15;101151.06;;;35.20;58.29
2401;BME280;1211;43.200;27.914;2022-08-04T05:45:44;101150.06;;;34.75;57.89
2401;BME280;1211;43.200;27.914;2022-08-04T05:48:14;101146.41;;;35.46;55.67
2401;BME280;1211;43.200;27.914;2022-08-04T05:50:42;101154.06;;;35.25;56.60
2401;BME280;1211;43.200;27.914;2022-08-04T05:53:12;101147.91;;;35.41;56.02
2401;BME280;1211;43.200;27.914;2022-08-04T05:55:41;101147.25;;;35.13;55.76
2401;BME280;1211;43.200;27.914;2022-08-04T05:58:08;101144.75;;;35.92;55.59
2401;BME280;1211;43.200;27.914;2022-08-04T06:00:38;101146.31;;;35.40;55.59
2401;BME280;1211;43.200;27.914;2022-08-04T06:03:08;101139.31;;;35.41;55.81
2401;BME280;1211;43.200;27.914;2022-08-04T06:05:36;101148.47;;;35.69;54.35
2401;BME280;1211;43.200;27.914;2022-08-04T06:08:04;101141.53;;;34.06;56.99
2401;BME280;1211;43.200;27.914;2022-08-04T06:10:33;101139.34;;;35.08;55.93
2401;BME280;1211;43.200;27.914;2022-08-04T06:13:06;101142.28;;;35.47;54.88
2401;BME280;1211;43.200;27.914;2022-08-04T06:15:42;101138.03;;;34.95;55.51
2401;BME280;1211;43.200;27.914;2022-08-04T06:18:13;101137.91;;;36.05;53.77
2401;BME280;1211;43.200;27.914;2022-08-04T06:20:41;101133.47;;;36.33;53.84
2401;BME280;1211;43.200;27.914;2022-08-04T06:23:12;101142.25;;;35.85;53.93
2401;BME280;1211;43.200;27.914;2022-08-04T06:25:44;101136.31;;;35.74;53.75
2401;BME280;1211;43.200;27.914;2022-08-04T06:28:12;101128.88;;;36.12;53.54
2401;BME280;1211;43.200;27.914;2022-08-04T06:30:42;101138.00;;;35.96;53.89
2401;BME280;1211;43.200;27.914;2022-08-04T06:33:14;101121.16;;;35.59;53.99
2401;BME280;1211;43.200;27.914;2022-08-04T06:35:52;101126.25;;;35.55;54.30
2401;BME280;1211;43.200;27.914;2022-08-04T06:38:22;101122.38;;;36.26;52.93
2401;BME280;1211;43.200;27.914;2022-08-04T06:40:50;101128.47;;;36.63;52.58
2401;BME280;1211;43.200;27.914;2022-08-04T06:43:17;101131.44;;;36.68;51.85
2401;BME280;1211;43.200;27.914;2022-08-04T06:45:46;101126.91;;;35.88;53.16
2401;BME280;1211;43.200;27.914;2022-08-04T06:48:16;101121.56;;;37.10;52.22
2401;BME280;1211;43.200;27.914;2022-08-04T06:50:46;101124.84;;;36.33;52.39
2401;BME280;1211;43.200;27.914;2022-08-04T06:53:13;101123.28;;;35.35;54.50
2401;BME280;1211;43.200;27.914;2022-08-04T06:55:42;101132.06;;;35.84;53.80
2401;BME280;1211;43.200;27.914;2022-08-04T06:58:09;101134.88;;;35.55;54.29
2401;BME280;1211;43.200;27.914;2022-08-04T07:00:38;101131.91;;;37.22;51.43
2401;BME280;1211;43.200;27.914;2022-08-04T07:03:07;101125.59;;;36.48;51.95
2401;BME280;1211;43.200;27.914;2022-08-04T07:05:35;101125.13;;;36.35;52.15
2401;BME280;1211;43.200;27.914;2022-08-04T07:08:03;101127.41;;;35.34;53.62
2401;BME280;1211;43.200;27.914;2022-08-04T07:10:30;101133.03;;;35.28;53.12
2401;BME280;1211;43.200;27.914;2022-08-04T07:12:59;101127.59;;;36.13;52.16
2401;BME280;1211;43.200;27.914;2022-08-04T07:15:26;101130.28;;;36.81;51.83
2401;BME280;1211;43.200;27.914;2022-08-04T07:17:55;101131.66;;;37.46;50.44
2401;BME280;1211;43.200;27.914;2022-08-04T07:20:26;101135.34;;;38.18;48.51
2401;BME280;1211;43.200;27.914;2022-08-04T07:22:54;101122.63;;;37.79;48.55
2401;BME280;1211;43.200;27.914;2022-08-04T07:25:22;101124.53;;;38.45;48.03
2401;BME280;1211;43.200;27.914;2022-08-04T07:27:49;101130.50;;;38.72;47.06
2401;BME280;1211;43.200;27.914;2022-08-04T07:30:19;101138.13;;;39.24;46.49
2401;BME280;1211;43.200;27.914;2022-08-04T07:32:46;101126.44;;;38.53;46.51
2401;BME280;1211;43.200;27.914;2022-08-04T07:35:13;101131.44;;;37.70;47.88
2401;BME280;1211;43.200;27.914;2022-08-04T07:37:43;101129.25;;;38.11;47.89
2401;BME280;1211;43.200;27.914;2022-08-04T07:40:10;101130.09;;;39.44;45.51
2401;BME280;1211;43.200;27.914;2022-08-04T07:42:37;101129.59;;;39.63;44.79
2401;BME280;1211;43.200;27.914;2022-08-04T07:45:05;101126.03;;;40.01;43.82
2401;BME280;1211;43.200;27.914;2022-08-04T07:47:33;101124.19;;;40.04;44.72
2401;BME280;1211;43.200;27.914;2022-08-04T07:50:00;101130.47;;;40.74;43.50
2401;BME280;1211;43.200;27.914;2022-08-04T07:52:28;101128.28;;;41.03;42.36
2401;BME280;1211;43.200;27.914;2022-08-04T07:54:57;101126.97;;;40.98;42.44
2401;BME280;1211;43.200;27.914;2022-08-04T07:57:27;101132.59;;;39.90;42.45
2401;BME280;1211;43.200;27.914;2022-08-04T07:59:54;101119.34;;;41.12;41.80
2401;BME280;1211;43.200;27.914;2022-08-04T08:02:21;101115.50;;;40.09;43.14
2401;BME280;1211;43.200;27.914;2022-08-04T08:04:49;101120.13;;;41.07;42.12
2401;BME280;1211;43.200;27.914;2022-08-04T08:07:18;101122.19;;;39.34;43.18
2401;BME280;1211;43.200;27.914;2022-08-04T08:09:45;101121.06;;;39.14;43.97
2401;BME280;1211;43.200;27.914;2022-08-04T08:12:14;101117.69;;;39.22;44.14
2401;BME280;1211;43.200;27.914;2022-08-04T08:14:42;101110.91;;;36.96;47.67
2401;BME280;1211;43.200;27.914;2022-08-04T08:17:09;101112.78;;;36.29;49.21
2401;BME280;1211;43.200;27.914;2022-08-04T08:19:36;101113.28;;;35.30;51.19
2401;BME280;1211;43.200;27.914;2022-08-04T08:22:03;101109.38;;;35.19;51.86
2401;BME280;1211;43.200;27.914;2022-08-04T08:24:33;101109.91;;;36.29;49.29
2401;BME280;1211;43.200;27.914;2022-08-04T08:27:01;101108.81;;;37.83;46.29
2401;BME280;1211;43.200;27.914;2022-08-04T08:29:32;101113.66;;;37.25;47.72
2401;BME280;1211;43.200;27.914;2022-08-04T08:32:00;101110.19;;;35.72;49.15
2401;BME280;1211;43.200;27.914;2022-08-04T08:34:28;101109.25;;;34.23;52.42
2401;BME280;1211;43.200;27.914;2022-08-04T08:36:58;101104.88;;;35.27;51.12
2401;BME280;1211;43.200;27.914;2022-08-04T08:39:33;101103.81;;;35.39;50.83
2401;BME280;1211;43.200;27.914;2022-08-04T08:51:38;101112.31;;;36.65;47.09
2401;BME280;1211;43.200;27.914;2022-08-04T08:54:22;101111.09;;;35.78;48.25
2401;BME280;1211;43.200;27.914;2022-08-04T08:57:01;101102.22;;;33.37;54.04
2401;BME280;1211;43.200;27.914;2022-08-04T08:59:49;101100.81;;;36.01;50.00
2401;BME280;1211;43.200;27.914;2022-08-04T09:02:40;101102.50;;;38.73;46.05
2401;BME280;1211;43.200;27.914;2022-08-04T09:05:28;101107.13;;;40.45;41.30
2401;BME280;1211;43.200;27.914;2022-08-04T09:08:16;101099.75;;;40.66;42.14
2401;BME280;1211;43.200;27.914;2022-08-04T09:10:47;101089.50;;;41.34;40.95
2401;BME280;1211;43.200;27.914;2022-08-04T09:13:17;101092.38;;;39.70;43.38
2401;BME280;1211;43.200;27.914;2022-08-04T09:15:51;101097.81;;;39.35;43.54
2401;BME280;1211;43.200;27.914;2022-08-04T09:18:24;101089.28;;;40.46;43.20
2401;BME280;1211;43.200;27.914;2022-08-04T09:20:58;101090.06;;;40.19;41.24
2401;BME280;1211;43.200;27.914;2022-08-04T09:23:35;101086.00;;;41.87;39.09
2401;BME280;1211;43.200;27.914;2022-08-04T09:26:11;101096.75;;;42.22;39.86
2401;BME280;1211;43.200;27.914;2022-08-04T09:28:47;101085.97;;;43.39;37.96
2401;BME280;1211;43.200;27.914;2022-08-04T09:31:20;101091.72;;;41.17;39.62
2401;BME280;1211;43.200;27.914;2022-08-04T09:33:58;101086.94;;;39.83;43.20
2401;BME280;1211;43.200;27.914;2022-08-04T09:36:31;101094.44;;;38.88;46.14
2401;BME280;1211;43.200;27.914;2022-08-04T09:39:07;101092.91;;;37.87;49.46
2401;BME280;1211;43.200;27.914;2022-08-04T09:41:43;101091.78;;;39.33;48.46
2401;BME280;1211;43.200;27.914;2022-08-04T09:44:20;101080.50;;;38.39;50.75
2401;BME280;1211;43.200;27.914;2022-08-04T09:46:54;101091.34;;;37.61;50.65
2401;BME280;1211;43.200;27.914;2022-08-04T09:49:30;101082.91;;;36.56;49.23
2401;BME280;1211;43.200;27.914;2022-08-04T09:52:06;101080.41;;;35.55;61.15
2401;BME280;1211;43.200;27.914;2022-08-04T09:54:45;101073.06;;;35.25;65.68
2401;BME280;1211;43.200;27.914;2022-08-04T09:57:27;101068.84;;;36.23;63.94
2401;BME280;1211;43.200;27.914;2022-08-04T10:00:04;101071.81;;;36.28;63.44
2401;BME280;1211;43.200;27.914;2022-08-04T10:02:35;101070.84;;;36.52;61.36
2401;BME280;1211;43.200;27.914;2022-08-04T10:05:08;101089.09;;;37.24;60.20
2401;BME280;1211;43.200;27.914;2022-08-04T10:08:01;101082.84;;;37.26;59.64
2401;BME280;1211;43.200;27.914;2022-08-04T10:10:37;101093.06;;;34.20;68.42
2401;BME280;1211;43.200;27.914;2022-08-04T10:13:26;101084.38;;;32.29;79.00
2401;BME280;1211;43.200;27.914;2022-08-04T10:16:09;101084.47;;;31.42;88.37
2401;BME280;1211;43.200;27.914;2022-08-04T10:18:48;101076.81;;;31.73;91.26
2401;BME280;1211;43.200;27.914;2022-08-04T10:21:29;101080.81;;;33.41;83.34
2401;BME280;1211;43.200;27.914;2022-08-04T10:24:10;101072.03;;;34.89;75.98
2401;BME280;1211;43.200;27.914;2022-08-04T10:26:47;101068.53;;;35.33;74.43
2401;BME280;1211;43.200;27.914;2022-08-04T10:29:21;101064.59;;;33.57;81.58
2401;BME280;1211;43.200;27.914;2022-08-04T10:31:56;101071.25;;;33.63;81.68
2401;BME280;1211;43.200;27.914;2022-08-04T10:34:27;101086.41;;;34.05;78.88
2401;BME280;1211;43.200;27.914;2022-08-04T10:37:00;101070.63;;;33.04;81.16
2401;BME280;1211;43.200;27.914;2022-08-04T10:39:36;101076.09;;;31.60;90.78
2401;BME280;1211;43.200;27.914;2022-08-04T10:42:15;101076.75;;;31.08;97.46
2401;BME280;1211;43.200;27.914;2022-08-04T10:44:54;101068.19;;;30.10;100.00
2401;BME280;1211;43.200;27.914;2022-08-04T10:47:25;101066.47;;;31.98;100.00
2401;BME280;1211;43.200;27.914;2022-08-04T10:49:59;101071.22;;;33.81;96.27
2401;BME280;1211;43.200;27.914;2022-08-04T10:52:32;101075.94;;;34.02;92.83
2401;BME280;1211;43.200;27.914;2022-08-04T10:55:05;101071.13;;;33.21;94.65
2401;BME280;1211;43.200;27.914;2022-08-04T10:57:38;101062.47;;;32.66;99.24
2401;BME280;1211;43.200;27.914;2022-08-04T11:00:07;101071.91;;;32.94;100.00
2401;BME280;1211;43.200;27.914;2022-08-04T11:02:40;101072.38;;;33.01;99.60
2401;BME280;1211;43.200;27.914;2022-08-04T11:05:17;101072.56;;;31.56;100.00
2401;BME280;1211;43.200;27.914;2022-08-04T11:07:49;101069.69;;;31.56;100.00
2401;BME280;1211;43.200;27.914;2022-08-04T11:10:20;101072.13;;;31.23;100.00
2401;BME280;1211;43.200;27.914;2022-08-04T11:12:54;101072.16;;;31.10;100.00
2401;BME280;1211;43.200;27.914;2022-08-04T11:15:24;101066.69;;;30.44;100.00
2401;BME280;1211;43.200;27.914;2022-08-04T11:17:56;101070.78;;;30.43;100.00
2401;BME280;1211;43.200;27.914;2022-08-04T11:20:28;101059.16;;;29.74;100.00
2401;BME280;1211;43.200;27.914;2022-08-04T11:23:02;101054.72;;;29.60;100.00
2401;BME280;1211;43.200;27.914;2022-08-04T11:25:35;101058.94;;;29.81;100.00
2401;BME280;1211;43.200;27.914;2022-08-04T11:28:11;101057.47;;;29.89;100.00
2401;BME280;1211;43.200;27.914;2022-08-04T11:30:50;101057.25;;;29.96;100.00
2401;BME280;1211;43.200;27.914;2022-08-04T11:33:22;101047.47;;;30.60;100.00
2401;BME280;1211;43.200;27.914;2022-08-04T11:35:57;101054.72;;;29.85;100.00
2401;BME280;1211;43.200;27.914;2022-08-04T11:38:37;101062.94;;;29.96;100.00
2401;BME280;1211;43.200;27.914;2022-08-04T11:41:12;101055.78;;;30.42;100.00
2401;BME280;1211;43.200;27.914;2022-08-04T11:43:55;101051.47;;;30.63;100.00
2401;BME280;1211;43.200;27.914;2022-08-04T11:46:25;101057.28;;;31.28;100.00
2401;BME280;1211;43.200;27.914;2022-08-04T11:48:59;101057.47;;;30.78;100.00
2401;BME280;1211;43.200;27.914;2022-08-04T11:51:27;101056.25;;;31.00;100.00
2401;BME280;1211;43.200;27.914;2022-08-04T11:53:55;101061.63;;;30.98;100.00
2401;BME280;1211;43.200;27.914;2022-08-04T11:56:23;101046.78;;;30.69;100.00
2401;BME280;1211;43.200;27.914;2022-08-04T11:58:53;101051.44;;;28.88;100.00
2401;BME280;1211;43.200;27.914;2022-08-04T12:01:24;101060.91;;;29.42;100.00
2401;BME280;1211;43.200;27.914;2022-08-04T12:04:02;101055.56;;;28.99;100.00
2401;BME280;1211;43.200;27.914;2022-08-04T12:06:37;101061.69;;;29.14;100.00
2401;BME280;1211;43.200;27.914;2022-08-04T12:09:14;101041.16;;;28.61;100.00
2401;BME280;1211;43.200;27.914;2022-08-04T12:11:59;101050.38;;;28.82;100.00
2401;BME280;1211;43.200;27.914;2022-08-04T12:14:37;101057.78;;;29.08;100.00
2401;BME280;1211;43.200;27.914;2022-08-04T12:17:06;101056.75;;;29.60;100.00
2401;BME280;1211;43.200;27.914;2022-08-04T12:19:38;101043.03;;;31.06;100.00
2401;BME280;1211;43.200;27.914;2022-08-04T12:22:13;101045.69;;;30.03;100.00
2401;BME280;1211;43.200;27.914;2022-08-04T12:24:43;101047.09;;;29.70;100.00
2401;BME280;1211;43.200;27.914;2022-08-04T12:27:15;101049.78;;;30.15;100.00
2401;BME280;1211;43.200;27.914;2022-08-04T12:29:45;101051.47;;;30.25;100.00
2401;BME280;1211;43.200;27.914;2022-08-04T12:32:22;101035.28;;;29.84;100.00
2401;BME280;1211;43.200;27.914;2022-08-04T12:35:00;101044.38;;;29.79;100.00
2401;BME280;1211;43.200;27.914;2022-08-04T12:37:40;101040.22;;;30.34;100.00
2401;BME280;1211;43.200;27.914;2022-08-04T12:40:14;101044.97;;;30.37;100.00
2401;BME280;1211;43.200;27.914;2022-08-04T12:42:47;101031.78;;;29.38;100.00
2401;BME280;1211;43.200;27.914;2022-08-04T12:45:21;101027.78;;;28.78;100.00
2401;BME280;1211;43.200;27.914;2022-08-04T12:47:49;101031.88;;;28.61;100.00
2401;BME280;1211;43.200;27.914;2022-08-04T12:50:19;101040.75;;;29.08;100.00
2401;BME280;1211;43.200;27.914;2022-08-04T12:52:48;101028.94;;;29.09;100.00
2401;BME280;1211;43.200;27.914;2022-08-04T12:55:19;101037.16;;;29.36;100.00
2401;BME280;1211;43.200;27.914;2022-08-04T12:57:50;101044.22;;;30.11;100.00
2401;BME280;1211;43.200;27.914;2022-08-04T13:00:27;101043.66;;;30.04;100.00
2401;BME280;1211;43.200;27.914;2022-08-04T13:02:59;101027.47;;;30.01;100.00
2401;BME280;1211;43.200;27.914;2022-08-04T13:05:29;101037.22;;;29.74;100.00
2401;BME280;1211;43.200;27.914;2022-08-04T13:07:57;101042.50;;;30.26;100.00
2401;BME280;1211;43.200;27.914;2022-08-04T13:10:25;101041.91;;;30.32;100.00
2401;BME280;1211;43.200;27.914;2022-08-04T13:12:55;101030.53;;;29.81;100.00
2401;BME280;1211;43.200;27.914;2022-08-04T13:15:26;101030.31;;;29.88;100.00
2401;BME280;1211;43.200;27.914;2022-08-04T13:17:58;101031.31;;;29.69;100.00
2401;BME280;1211;43.200;27.914;2022-08-04T13:20:28;101036.88;;;29.72;100.00
2401;BME280;1211;43.200;27.914;2022-08-04T13:23:03;101033.34;;;29.68;100.00
2401;BME280;1211;43.200;27.914;2022-08-04T13:25:31;101028.97;;;29.93;100.00
2401;BME280;1211;43.200;27.914;2022-08-04T13:27:59;101028.84;;;29.96;100.00
2401;BME280;1211;43.200;27.914;2022-08-04T13:30:30;101035.69;;;30.11;100.00
2401;BME280;1211;43.200;27.914;2022-08-04T13:33:00;101033.88;;;29.51;100.00
2401;BME280;1211;43.200;27.914;2022-08-04T13:35:28;101031.22;;;29.85;100.00
2401;BME280;1211;43.200;27.914;2022-08-04T13:37:57;101034.91;;;30.23;100.00
2401;BME280;1211;43.200;27.914;2022-08-04T13:40:26;101036.50;;;29.99;100.00
2401;BME280;1211;43.200;27.914;2022-08-04T13:42:54;101035.84;;;29.66;100.00
2401;BME280;1211;43.200;27.914;2022-08-04T13:45:22;101040.97;;;29.71;100.00
2401;BME280;1211;43.200;27.914;2022-08-04T13:47:58;101029.00;;;30.05;100.00
2401;BME280;1211;43.200;27.914;2022-08-04T13:50:28;101045.69;;;30.28;100.00
2401;BME280;1211;43.200;27.914;2022-08-04T13:52:57;101041.63;;;29.63;100.00
2401;BME280;1211;43.200;27.914;2022-08-04T13:55:28;101036.16;;;29.56;100.00
2401;BME280;1211;43.200;27.914;2022-08-04T13:58:04;101046.63;;;29.59;100.00